createdAt,value
2019-06-08T00:01:38.387Z,100832.55
2019-06-08T00:03:39.769Z,100844.09
2019-06-08T00:05:41.155Z,100846.02
2019-06-08T00:07:42.669Z,100850.00
2019-06-08T00:09:44.070Z,100851.78
2019-06-08T00:11:45.452Z,100857.48
2019-06-08T00:13:46.871Z,100865.22
2019-06-08T00:15:48.254Z,100870.69
2019-06-08T00:17:49.655Z,100869.92
2019-06-08T00:19:51.049Z,100875.48
2019-06-08T00:21:52.412Z,100879.35
2019-06-08T00:23:53.828Z,100886.02
2019-06-08T00:25:55.208Z,100884.62
2019-06-08T00:27:56.591Z,100885.81
2019-06-08T00:29:57.983Z,100891.81
2019-06-08T00:31:59.362Z,100892.69
2019-06-08T00:34:00.803Z,100902.52
2019-06-08T00:36:02.367Z,100910.72
2019-06-08T00:38:03.749Z,100911.55
2019-06-08T00:40:06.375Z,100924.38
2019-06-08T00:42:07.732Z,100930.11
2019-06-08T00:44:09.159Z,100933.75
2019-06-08T00:46:10.546Z,100933.70
2019-06-08T00:48:11.912Z,100934.53
2019-06-08T00:50:13.667Z,100951.08
2019-06-08T00:52:15.060Z,100955.21
2019-06-08T00:54:17.371Z,100954.57
2019-06-08T00:56:19.445Z,100959.20
2019-06-08T00:58:22.012Z,100966.05
2019-06-08T01:00:24.515Z,100968.52
2019-06-08T01:02:26.791Z,100968.78
2019-06-08T01:04:29.128Z,100964.11
2019-06-08T01:06:30.613Z,100968.98
2019-06-08T01:08:32.029Z,100975.28
2019-06-08T01:10:33.438Z,100982.56
2019-06-08T01:12:35.020Z,100990.48
2019-06-08T01:14:36.415Z,101001.42
2019-06-08T01:16:37.832Z,101015.99
2019-06-08T01:18:39.214Z,101025.28
2019-06-08T01:20:40.621Z,101032.72
2019-06-08T01:22:41.999Z,101026.30
2019-06-08T01:24:43.376Z,101023.87
2019-06-08T01:26:44.775Z,101029.06
2019-06-08T01:28:46.134Z,101052.79
2019-06-08T01:30:47.629Z,101056.56
2019-06-08T01:32:49.027Z,101070.03
2019-06-08T01:34:50.394Z,101079.97
2019-06-08T01:36:51.759Z,101089.80
2019-06-08T01:38:53.187Z,101102.70
2019-06-08T01:40:54.548Z,101103.14
2019-06-08T01:42:55.934Z,101113.73
2019-06-08T01:44:57.340Z,101116.61
2019-06-08T01:46:58.753Z,101112.45
2019-06-08T01:49:00.150Z,101129.70
2019-06-08T01:51:01.579Z,101131.73
2019-06-08T01:53:03.521Z,101140.60
2019-06-08T01:55:05.526Z,101147.44
2019-06-08T01:57:06.917Z,101152.36
2019-06-08T01:59:08.414Z,101146.17
2019-06-08T02:01:09.888Z,101155.66
2019-06-08T02:03:11.270Z,101156.02
2019-06-08T02:05:13.240Z,101165.51
2019-06-08T02:07:14.644Z,101161.45
2019-06-08T02:09:16.010Z,101162.97
2019-06-08T02:11:17.435Z,101170.06
2019-06-08T02:13:18.929Z,101170.44
2019-06-08T02:15:22.887Z,101164.59
2019-06-08T02:17:25.147Z,101178.59
2019-06-08T02:19:26.676Z,101188.65
2019-06-08T02:21:28.863Z,101192.87
2019-06-08T02:23:31.124Z,101200.38
2019-06-08T02:25:33.547Z,101201.16
2019-06-08T02:27:35.791Z,101210.72
2019-06-08T02:29:37.407Z,101206.28
2019-06-08T02:31:38.824Z,101202.95
2019-06-08T02:33:40.517Z,101206.26
2019-06-08T02:35:42.056Z,101215.47
2019-06-08T02:37:43.471Z,101228.34
2019-06-08T02:39:44.857Z,101228.57
2019-06-08T02:41:46.231Z,101228.70
2019-06-08T02:43:47.636Z,101226.94
2019-06-08T02:45:49.043Z,101231.63
2019-06-08T02:47:50.397Z,101227.48
2019-06-08T02:49:51.811Z,101234.15
2019-06-08T02:51:54.210Z,101237.83
2019-06-08T02:53:55.823Z,101239.89
2019-06-08T02:55:57.433Z,101253.61
2019-06-08T02:57:59.432Z,101258.20
2019-06-08T03:00:02.353Z,101255.45
2019-06-08T03:02:04.214Z,101255.83
2019-06-08T03:04:05.675Z,101242.25
2019-06-08T03:06:07.107Z,101247.58
2019-06-08T03:08:10.187Z,101260.22
2019-06-08T03:10:11.792Z,101249.47
2019-06-08T03:12:16.191Z,101240.99
2019-06-08T03:14:18.247Z,101241.85
2019-06-08T03:16:19.664Z,101238.01
2019-06-08T03:18:21.031Z,101233.16
2019-06-08T03:20:22.408Z,101228.19
2019-06-08T03:22:23.823Z,101230.22
2019-06-08T03:24:25.191Z,101236.81
2019-06-08T03:26:26.558Z,101239.04
2019-06-08T03:28:27.997Z,101244.73
2019-06-08T03:30:29.386Z,101238.19
2019-06-08T03:32:30.740Z,101236.41
2019-06-08T03:34:35.608Z,101237.66
2019-06-08T03:36:40.342Z,101232.12
2019-06-08T03:38:40.153Z,101233.48
2019-06-08T03:40:43.445Z,101238.61
2019-06-08T03:42:45.654Z,101230.89
2019-06-08T03:44:47.009Z,101230.83
2019-06-08T03:46:48.425Z,101216.73
2019-06-08T03:48:49.800Z,101217.20
2019-06-08T03:50:51.176Z,101207.48
2019-06-08T03:52:52.605Z,101208.54
2019-06-08T03:54:53.997Z,101195.34
2019-06-08T03:56:55.369Z,101202.73
2019-06-08T03:58:56.822Z,101214.50
2019-06-08T04:00:58.253Z,101225.65
2019-06-08T04:02:59.637Z,101220.36
2019-06-08T04:05:01.024Z,101232.98
2019-06-08T04:07:02.456Z,101229.90
2019-06-08T04:09:05.825Z,101246.13
2019-06-08T04:11:07.196Z,101262.60
2019-06-08T04:13:11.308Z,101280.23
2019-06-08T04:15:12.574Z,101273.77
2019-06-08T04:17:13.983Z,101280.94
2019-06-08T04:19:15.392Z,101282.32
2019-06-08T04:21:16.820Z,101285.64
2019-06-08T04:23:18.382Z,101284.64
2019-06-08T04:25:19.879Z,101278.94
2019-06-08T04:27:21.275Z,101282.73
2019-06-08T04:29:22.665Z,101300.04
2019-06-08T04:31:24.030Z,101306.19
2019-06-08T04:33:25.403Z,101320.86
2019-06-08T04:35:26.821Z,101337.02
2019-06-08T04:37:28.207Z,101338.27
2019-06-08T04:39:29.683Z,101330.40
2019-06-08T04:41:31.138Z,101327.57
2019-06-08T04:43:33.005Z,101332.78
2019-06-08T04:45:34.386Z,101335.30
2019-06-08T04:47:36.109Z,101346.64
2019-06-08T04:49:38.467Z,101342.98
2019-06-08T04:51:40.787Z,101346.88
2019-06-08T04:53:43.260Z,101346.27
2019-06-08T04:55:47.120Z,101358.08
2019-06-08T04:57:50.706Z,101366.50
2019-06-08T04:59:52.033Z,101376.37
2019-06-08T05:01:53.405Z,101378.45
2019-06-08T05:03:54.874Z,101383.59
2019-06-08T05:05:56.304Z,101376.34
2019-06-08T05:07:57.672Z,101387.31
2019-06-08T05:09:59.071Z,101395.83
2019-06-08T05:12:00.477Z,101406.73
2019-06-08T05:14:02.068Z,101398.82
2019-06-08T05:16:03.581Z,101393.47
2019-06-08T05:18:05.359Z,101385.27
2019-06-08T05:20:07.143Z,101370.48
2019-06-08T05:22:08.588Z,101387.14
2019-06-08T05:24:10.014Z,101386.89
2019-06-08T05:26:11.400Z,101404.53
2019-06-08T05:28:12.815Z,101403.27
2019-06-08T05:30:20.911Z,101407.68
2019-06-08T05:32:22.311Z,101413.47
2019-06-08T05:34:23.711Z,101415.05
2019-06-08T05:36:25.096Z,101409.73
2019-06-08T05:38:26.495Z,101423.39
2019-06-08T05:40:27.863Z,101418.73
2019-06-08T05:42:29.292Z,101414.34
2019-06-08T05:44:30.680Z,101423.00
2019-06-08T05:46:32.049Z,101433.48
2019-06-08T05:48:33.455Z,101439.19
2019-06-08T05:50:34.956Z,101437.48
2019-06-08T05:52:36.346Z,101421.47
2019-06-08T05:54:37.745Z,101426.23
2019-06-08T05:56:39.923Z,101420.05
2019-06-08T05:58:41.846Z,101422.31
2019-06-08T06:00:44.227Z,101418.45
2019-06-08T06:02:46.938Z,101422.53
2019-06-08T06:04:52.159Z,101430.78
2019-06-08T06:06:51.911Z,101435.23
2019-06-08T06:08:53.355Z,101428.95
2019-06-08T06:10:54.772Z,101447.02
2019-06-08T06:12:56.140Z,101441.19
2019-06-08T06:14:57.565Z,101427.89
2019-06-08T06:16:58.922Z,101419.38
2019-06-08T06:19:00.310Z,101410.47
2019-06-08T06:21:11.180Z,101406.31
2019-06-08T06:23:05.176Z,101405.05
2019-06-08T06:25:08.238Z,101416.01
2019-06-08T06:27:09.648Z,101429.44
2019-06-08T06:29:11.457Z,101435.98
2019-06-08T06:31:12.853Z,101441.95
2019-06-08T06:33:14.253Z,101454.39
2019-06-08T06:35:15.732Z,101445.07
2019-06-08T06:37:17.121Z,101438.08
2019-06-08T06:39:18.549Z,101466.05
2019-06-08T06:41:19.915Z,101480.82
2019-06-08T06:43:21.341Z,101485.16
2019-06-08T06:45:22.763Z,101481.54
2019-06-08T06:47:24.733Z,101479.73
2019-06-08T06:49:26.141Z,101488.13
2019-06-08T06:51:27.538Z,101488.80
2019-06-08T06:53:29.131Z,101495.20
2019-06-08T06:55:30.503Z,101485.68
2019-06-08T06:57:35.816Z,101486.28
2019-06-08T06:59:35.219Z,101490.70
2019-06-08T07:01:36.682Z,101483.92
2019-06-08T07:03:38.277Z,101488.77
2019-06-08T07:05:39.644Z,101512.56
2019-06-08T07:07:41.023Z,101512.58
2019-06-08T07:09:42.552Z,101513.59
2019-06-08T07:11:44.511Z,101510.47
2019-06-08T07:13:46.608Z,101520.17
2019-06-08T07:15:52.667Z,101543.09
2019-06-08T07:17:53.127Z,101543.50
2019-06-08T07:19:54.793Z,101555.26
2019-06-08T07:21:56.377Z,101558.92
2019-06-08T07:23:58.785Z,101559.44
2019-06-08T07:26:00.317Z,101562.39
2019-06-08T07:28:01.722Z,101558.91
2019-06-08T07:30:04.871Z,101568.07
2019-06-08T07:32:06.360Z,101559.77
2019-06-08T07:34:07.727Z,101579.47
2019-06-08T07:36:09.185Z,101558.25
2019-06-08T07:38:10.608Z,101566.23
2019-06-08T07:40:12.409Z,101566.77
2019-06-08T07:42:13.779Z,101572.53
2019-06-08T07:44:15.157Z,101585.30
2019-06-08T07:46:16.571Z,101587.00
2019-06-08T07:48:17.952Z,101591.20
2019-06-08T07:50:19.447Z,101589.92
2019-06-08T07:52:20.850Z,101602.06
2019-06-08T07:54:22.230Z,101612.49
2019-06-08T07:56:23.703Z,101615.22
2019-06-08T07:58:25.179Z,101613.58
2019-06-08T08:00:26.638Z,101603.92
2019-06-08T08:02:28.004Z,101593.95
2019-06-08T08:04:29.437Z,101607.35
2019-06-08T08:06:30.836Z,101609.39
2019-06-08T08:08:32.213Z,101600.42
2019-06-08T08:10:33.667Z,101607.45
2019-06-08T08:12:35.074Z,101611.83
2019-06-08T08:14:36.447Z,101617.19
2019-06-08T08:16:37.824Z,101609.69
2019-06-08T08:18:39.355Z,101604.28
2019-06-08T08:20:40.727Z,101598.36
2019-06-08T08:22:42.140Z,101595.97
2019-06-08T08:24:43.522Z,101582.02
2019-06-08T08:26:44.907Z,101578.86
2019-06-08T08:28:50.081Z,101565.02
2019-06-08T08:30:51.132Z,101550.25
2019-06-08T08:32:54.462Z,101546.48
2019-06-08T08:34:58.745Z,101525.80
2019-06-08T08:37:05.923Z,101497.98
2019-06-08T08:39:08.203Z,101509.88
2019-06-08T08:41:10.833Z,101541.84
2019-06-08T08:43:12.563Z,101568.31
2019-06-08T08:45:14.468Z,101583.58
2019-06-08T08:47:18.520Z,101597.11
2019-06-08T08:49:19.217Z,101592.73
2019-06-08T08:51:20.751Z,101601.28
2019-06-08T08:53:22.227Z,101600.81
2019-06-08T08:55:23.669Z,101612.73
2019-06-08T08:57:25.069Z,101611.33
2019-06-08T08:59:28.048Z,101632.05
2019-06-08T09:01:29.774Z,101623.16
2019-06-08T09:03:33.683Z,101615.99
2019-06-08T09:05:34.539Z,101615.69
2019-06-08T09:07:38.226Z,101621.84
2019-06-08T09:09:39.659Z,101616.93
2019-06-08T09:11:41.674Z,101616.98
2019-06-08T09:13:43.233Z,101618.12
2019-06-08T09:15:44.665Z,101618.42
2019-06-08T09:17:48.149Z,101600.50
2019-06-08T09:19:49.455Z,101614.41
2019-06-08T09:21:52.510Z,101618.16
2019-06-08T09:23:55.748Z,101634.19
2019-06-08T09:26:05.948Z,101635.48
2019-06-08T09:28:04.672Z,101607.31
2019-06-08T09:30:08.261Z,101601.63
2019-06-08T09:32:09.541Z,101635.09
2019-06-08T09:34:15.219Z,101633.23
2019-06-08T09:36:14.293Z,101651.69
2019-06-08T09:38:18.381Z,101657.11
2019-06-08T09:40:19.181Z,101666.75
2019-06-08T09:42:21.300Z,101663.61
2019-06-08T09:44:23.041Z,101678.61
2019-06-08T09:46:24.514Z,101677.22
2019-06-08T09:48:28.572Z,101671.05
2019-06-08T09:50:29.332Z,101661.24
2019-06-08T09:52:30.764Z,101650.37
2019-06-08T09:54:32.378Z,101658.69
2019-06-08T09:56:33.862Z,101649.27
2019-06-08T09:58:35.508Z,101644.88
2019-06-08T10:00:37.887Z,101641.23
2019-06-08T10:02:39.605Z,101643.00
2019-06-08T10:04:41.139Z,101665.88
2019-06-08T10:06:42.580Z,101658.52
2019-06-08T10:08:44.236Z,101664.71
2019-06-08T10:10:48.233Z,101651.57
2019-06-08T10:12:49.077Z,101631.30
2019-06-08T10:14:50.516Z,101613.71
2019-06-08T10:16:52.164Z,101639.84
2019-06-08T10:18:54.872Z,101649.77
2019-06-08T10:20:59.593Z,101654.83
2019-06-08T10:23:03.127Z,101643.23
2019-06-08T10:25:08.754Z,101653.45
2019-06-08T10:27:11.797Z,101639.87
2019-06-08T10:29:13.035Z,101638.70
2019-06-08T10:31:14.420Z,101639.19
2019-06-08T10:33:18.256Z,101636.36
2019-06-08T10:35:20.998Z,101645.73
2019-06-08T10:37:22.501Z,101645.73
2019-06-08T10:39:23.870Z,101649.54
2019-06-08T10:41:27.653Z,101643.67
2019-06-08T10:43:29.109Z,101650.98
2019-06-08T10:45:30.558Z,101653.23
2019-06-08T10:47:31.963Z,101646.97
2019-06-08T10:49:33.410Z,101656.19
2019-06-08T10:51:34.842Z,101652.33
2019-06-08T10:53:48.227Z,101644.02
2019-06-08T10:55:40.894Z,101636.52
2019-06-08T10:57:42.421Z,101627.14
2019-06-08T10:59:43.844Z,101652.58
2019-06-08T11:01:45.361Z,101643.02
2019-06-08T11:03:48.839Z,101633.61
2019-06-08T11:05:51.401Z,101606.18
2019-06-08T11:07:52.925Z,101610.33
2019-06-08T11:09:54.460Z,101620.70
2019-06-08T11:11:57.967Z,101631.38
2019-06-08T11:14:00.937Z,101626.28
2019-06-08T11:16:04.428Z,101622.00
2019-06-08T11:18:09.971Z,101650.39
2019-06-08T11:20:13.024Z,101629.96
2019-06-08T11:22:14.974Z,101625.94
2019-06-08T11:24:24.148Z,101624.44
2019-06-08T11:26:24.291Z,101621.38
2019-06-08T11:28:23.667Z,101620.52
2019-06-08T11:30:28.078Z,101626.05
2019-06-08T11:32:28.787Z,101620.77
2019-06-08T11:34:30.287Z,101632.14
2019-06-08T11:36:31.710Z,101638.74
2019-06-08T11:38:33.164Z,101646.27
2019-06-08T11:40:34.583Z,101655.00
2019-06-08T11:42:38.640Z,101655.17
2019-06-08T11:44:39.463Z,101649.38
2019-06-08T11:46:42.660Z,101648.45
2019-06-08T11:48:44.422Z,101646.05
2019-06-08T11:50:48.872Z,101644.72
2019-06-08T11:52:49.477Z,101644.28
2019-06-08T11:54:51.074Z,101639.98
2019-06-08T11:56:52.718Z,101623.87
2019-06-08T11:58:57.927Z,101617.64
2019-06-08T12:01:04.652Z,101625.05
2019-06-08T12:03:08.431Z,101629.55
2019-06-08T12:05:12.662Z,101629.57
2019-06-08T12:07:14.018Z,101612.39
2019-06-08T12:09:18.496Z,101629.07
2019-06-08T12:11:23.046Z,101623.59
2019-06-08T12:13:23.454Z,101629.30
2019-06-08T12:15:25.080Z,101627.58
2019-06-08T12:17:27.650Z,101631.34
2019-06-08T12:19:31.603Z,101628.12
2019-06-08T12:21:33.056Z,101625.20
2019-06-08T12:23:34.613Z,101640.95
2019-06-08T12:25:37.807Z,101636.18
2019-06-08T12:27:40.397Z,101621.23
2019-06-08T12:29:43.579Z,101617.55
2019-06-08T12:31:45.187Z,101631.14
2019-06-08T12:33:48.749Z,101625.08
2019-06-08T12:35:50.351Z,101616.53
2019-06-08T12:37:57.942Z,101624.62
2019-06-08T12:39:57.993Z,101611.19
2019-06-08T12:42:01.188Z,101612.07
2019-06-08T12:44:04.035Z,101615.12
2019-06-08T12:46:08.257Z,101613.77
2019-06-08T12:48:14.649Z,101611.36
2019-06-08T12:50:15.018Z,101612.20
2019-06-08T12:52:21.851Z,101614.35
2019-06-08T12:54:20.784Z,101618.36
2019-06-08T12:56:24.193Z,101617.20
2019-06-08T12:58:27.584Z,101610.98
2019-06-08T13:00:29.247Z,101617.97
2019-06-08T13:02:30.632Z,101620.56
2019-06-08T13:04:32.134Z,101630.02
2019-06-08T13:06:33.559Z,101621.93
2019-06-08T13:08:34.964Z,101617.20
2019-06-08T13:10:38.179Z,101608.97
2019-06-08T13:12:40.961Z,101620.70
2019-06-08T13:14:42.545Z,101618.92
2019-06-08T13:16:53.284Z,101598.33
2019-06-08T13:18:54.779Z,101618.91
2019-06-08T13:20:58.994Z,101615.41
2019-06-08T13:23:00.504Z,101627.95
2019-06-08T13:25:19.188Z,101613.73
2019-06-08T13:27:12.006Z,101625.63
2019-06-08T13:29:12.562Z,101620.56
2019-06-08T13:31:18.231Z,101615.77
2019-06-08T13:33:18.388Z,101616.52
2019-06-08T13:35:22.142Z,101640.97
2019-06-08T13:37:23.089Z,101639.38
2019-06-08T13:39:24.457Z,101645.10
2019-06-08T13:41:29.034Z,101643.92
2019-06-08T13:43:29.240Z,101633.87
2019-06-08T13:45:30.608Z,101640.31
2019-06-08T13:47:31.983Z,101661.33
2019-06-08T13:49:33.392Z,101657.80
2019-06-08T13:51:34.788Z,101638.61
2019-06-08T13:53:38.301Z,101640.37
2019-06-08T13:55:51.717Z,101644.86
2019-06-08T13:57:42.770Z,101642.68
2019-06-08T13:59:44.206Z,101650.48
2019-06-08T14:01:47.712Z,101650.61
2019-06-08T14:03:49.962Z,101651.95
2019-06-08T14:05:51.513Z,101654.25
2019-06-08T14:07:53.032Z,101649.30
2019-06-08T14:09:54.409Z,101655.61
2019-06-08T14:11:57.744Z,101650.39
2019-06-08T14:14:01.233Z,101662.17
2019-06-08T14:16:02.655Z,101658.20
2019-06-08T14:18:04.275Z,101665.33
2019-06-08T14:20:08.017Z,101662.70
2019-06-08T14:22:10.692Z,101662.41
2019-06-08T14:27:39.830Z,101670.84
2019-06-08T14:29:41.391Z,101692.14
2019-06-08T14:32:21.106Z,101676.88
2019-06-08T14:34:31.219Z,101675.75
2019-06-08T14:36:32.667Z,101670.34
2019-06-08T14:38:38.686Z,101689.88
2019-06-08T14:40:37.669Z,101673.76
2019-06-08T14:42:39.310Z,101681.05
2019-06-08T14:44:40.871Z,101690.31
2019-06-08T14:46:42.263Z,101687.16
2019-06-08T14:48:45.269Z,101683.06
2019-06-08T14:50:48.039Z,101703.88
2019-06-08T14:52:51.521Z,101687.63
2019-06-08T14:54:53.031Z,101693.33
2019-06-08T14:56:54.436Z,101686.58
2019-06-08T14:58:57.638Z,101685.71
2019-06-08T15:00:59.118Z,101689.54
2019-06-08T15:03:00.610Z,101681.84
2019-06-08T15:05:04.483Z,101696.38
2019-06-08T15:07:09.341Z,101694.55
2019-06-08T15:09:21.352Z,101692.05
2019-06-08T15:11:23.363Z,101703.47
2019-06-08T15:13:26.225Z,101683.16
2019-06-08T15:15:30.082Z,101697.15
2019-06-08T15:17:32.179Z,101691.77
2019-06-08T15:19:37.037Z,101708.23
2019-06-08T15:21:38.473Z,101704.95
2019-06-08T15:23:41.316Z,101717.81
2019-06-08T15:25:43.937Z,101700.17
2019-06-08T15:27:47.723Z,101703.57
2019-06-08T15:29:48.676Z,101710.66
2019-06-08T15:31:50.119Z,101706.97
2019-06-08T15:33:51.559Z,101717.47
2019-06-08T15:35:53.009Z,101714.61
2019-06-08T15:37:54.413Z,101709.20
2019-06-08T15:39:55.822Z,101711.63
2019-06-08T15:42:00.229Z,101715.95
2019-06-08T15:44:02.904Z,101720.09
2019-06-08T15:46:04.484Z,101708.47
2019-06-08T15:48:07.977Z,101728.95
2019-06-08T15:50:09.540Z,101718.22
2019-06-08T15:52:10.965Z,101722.23
2019-06-08T15:54:12.341Z,101711.48
2019-06-08T15:56:14.391Z,101729.22
2019-06-08T15:58:18.220Z,101728.45
2019-06-08T16:00:19.834Z,101732.69
2019-06-08T16:02:21.271Z,101732.78
2019-06-08T16:04:23.446Z,101737.53
2019-06-08T16:06:25.779Z,101740.21
2019-06-08T16:08:27.872Z,101731.28
2019-06-08T16:10:30.263Z,101728.27
2019-06-08T16:12:33.156Z,101718.00
2019-06-08T16:14:35.089Z,101727.00
2019-06-08T16:16:36.672Z,101725.41
2019-06-08T16:18:38.253Z,101725.00
2019-06-08T16:20:39.697Z,101732.38
2019-06-08T16:22:41.108Z,101721.20
2019-06-08T16:24:42.577Z,101728.17
2019-06-08T16:26:52.623Z,101724.92
2019-06-08T16:28:47.599Z,101732.87
2019-06-08T16:30:49.105Z,101730.47
2019-06-08T16:32:50.524Z,101739.97
2019-06-08T16:34:51.986Z,101736.34
2019-06-08T16:36:53.462Z,101740.66
2019-06-08T16:38:54.838Z,101736.45
2019-06-08T16:40:56.226Z,101747.59
2019-06-08T16:42:57.632Z,101737.08
2019-06-08T16:44:59.087Z,101738.05
2019-06-08T16:47:00.451Z,101742.52
2019-06-08T16:49:01.962Z,101742.30
2019-06-08T16:51:03.403Z,101735.24
2019-06-08T16:53:04.805Z,101743.28
2019-06-08T16:55:06.384Z,101752.03
2019-06-08T16:57:10.802Z,101747.09
2019-06-08T16:59:11.142Z,101745.65
2019-06-08T17:01:12.554Z,101753.11
2019-06-08T17:03:13.960Z,101744.97
2019-06-08T17:05:15.402Z,101740.88
2019-06-08T17:07:16.776Z,101743.42
2019-06-08T17:09:18.177Z,101742.90
2019-06-08T17:11:19.605Z,101740.78
2019-06-08T17:13:20.997Z,101749.16
2019-06-08T17:15:22.451Z,101743.17
2019-06-08T17:17:23.848Z,101762.23
2019-06-08T17:19:25.258Z,101753.89
2019-06-08T17:21:26.779Z,101760.80
2019-06-08T17:23:28.333Z,101758.85
2019-06-08T17:25:30.611Z,101761.63
2019-06-08T17:27:32.615Z,101756.34
2019-06-08T17:29:34.903Z,101751.91
2019-06-08T17:31:37.215Z,101757.02
2019-06-08T17:33:39.415Z,101758.48
2019-06-08T17:35:42.273Z,101759.41
2019-06-08T17:37:43.962Z,101767.12
2019-06-08T17:39:45.348Z,101760.10
2019-06-08T17:41:46.802Z,101759.22
2019-06-08T17:43:48.188Z,101755.70
2019-06-08T17:45:49.659Z,101761.51
2019-06-08T17:47:51.096Z,101767.21
2019-06-08T17:49:52.891Z,101766.75
2019-06-08T17:51:54.288Z,101769.37
2019-06-08T17:53:55.706Z,101772.29
2019-06-08T17:55:57.095Z,101775.94
2019-06-08T17:57:58.490Z,101772.22
2019-06-08T17:59:59.883Z,101774.98
2019-06-08T18:02:01.300Z,101764.28
2019-06-08T18:04:02.694Z,101770.17
2019-06-08T18:06:07.162Z,101774.21
2019-06-08T18:08:08.426Z,101772.45
2019-06-08T18:10:09.921Z,101771.56
2019-06-08T18:12:11.313Z,101774.69
2019-06-08T18:14:13.199Z,101783.84
2019-06-08T18:16:17.543Z,101774.45
2019-06-08T18:18:19.130Z,101778.58
2019-06-08T18:20:20.816Z,101783.52
2019-06-08T18:22:22.180Z,101784.19
2019-06-08T18:24:23.558Z,101781.08
2019-06-08T18:26:24.970Z,101791.11
2019-06-08T18:28:28.138Z,101786.31
2019-06-08T18:30:29.814Z,101790.02
2019-06-08T18:32:31.190Z,101798.83
2019-06-08T18:34:32.577Z,101799.80
2019-06-08T18:36:34.742Z,101802.44
2019-06-08T18:38:39.806Z,101806.50
2019-06-08T18:40:41.938Z,101807.42
2019-06-08T18:42:44.622Z,101819.32
2019-06-08T18:44:48.593Z,101811.62
2019-06-08T18:46:50.190Z,101821.01
2019-06-08T18:48:51.620Z,101820.31
2019-06-08T18:50:53.017Z,101829.25
2019-06-08T18:52:54.392Z,101825.81
2019-06-08T18:54:57.689Z,101825.11
2019-06-08T18:56:59.123Z,101829.19
2019-06-08T18:59:00.499Z,101833.21
2019-06-08T19:01:01.941Z,101838.41
2019-06-08T19:03:07.000Z,101841.67
2019-06-08T19:05:08.513Z,101846.72
2019-06-08T19:07:09.879Z,101849.27
2019-06-08T19:09:12.330Z,101853.97
2019-06-08T19:11:13.893Z,101862.50
2019-06-08T19:13:17.981Z,101867.17
2019-06-08T19:15:24.786Z,101867.30
2019-06-08T19:17:28.277Z,101871.30
2019-06-08T19:19:31.423Z,101868.17
2019-06-08T19:21:33.083Z,101879.14
2019-06-08T19:23:34.462Z,101883.91
2019-06-08T19:25:39.423Z,101886.47
2019-06-08T19:27:43.033Z,101888.92
2019-06-08T19:30:03.830Z,101892.02
2019-06-08T19:32:07.303Z,101897.34
2019-06-08T19:34:08.550Z,101900.74
2019-06-08T19:36:10.320Z,101907.98
2019-06-08T19:38:11.797Z,101907.34
2019-06-08T19:40:13.685Z,101906.47
2019-06-08T19:42:17.415Z,101906.05
2019-06-08T19:44:18.483Z,101913.56
2019-06-08T19:46:19.912Z,101914.59
2019-06-08T19:48:21.293Z,101916.77
2019-06-08T19:50:22.700Z,101918.37
2019-06-08T19:52:24.125Z,101920.00
2019-06-08T19:54:25.577Z,101926.30
2019-06-08T19:56:28.220Z,101926.25
2019-06-08T19:58:30.291Z,101930.64
2019-06-08T20:00:31.929Z,101932.94
2019-06-08T20:02:33.339Z,101936.44
2019-06-08T20:04:34.769Z,101940.47
2019-06-08T20:06:37.947Z,101941.00
2019-06-08T20:08:39.512Z,101943.13
2019-06-08T20:10:41.121Z,101947.34
2019-06-08T20:12:43.581Z,101951.55
2019-06-08T20:14:45.411Z,101956.16
2019-06-08T20:16:49.358Z,101957.27
2019-06-08T20:18:51.683Z,101955.63
2019-06-08T20:20:54.542Z,101955.23
2019-06-08T20:22:58.324Z,101957.12
2019-06-08T20:24:59.439Z,101960.82
2019-06-08T20:27:00.853Z,101954.02
2019-06-08T20:29:12.221Z,101960.03
2019-06-08T20:31:07.483Z,101961.02
2019-06-08T20:35:19.384Z,101957.39
2019-06-08T20:37:20.792Z,101962.09
2019-06-08T20:39:22.178Z,101963.48
2019-06-08T20:41:23.606Z,101964.33
2019-06-08T20:43:24.971Z,101965.48
2019-06-08T20:45:28.074Z,101970.85
2019-06-08T20:47:29.795Z,101970.17
2019-06-08T20:49:31.189Z,101978.77
2019-06-08T20:51:32.559Z,101974.77
2019-06-08T20:53:33.987Z,101977.05
2019-06-08T20:55:40.052Z,101977.67
2019-06-08T20:57:38.874Z,101978.71
2019-06-08T20:59:40.339Z,101986.75
2019-06-08T21:01:41.821Z,101988.47
2019-06-08T21:03:43.652Z,101991.59
2019-06-08T21:05:48.556Z,101997.83
2019-06-08T21:07:55.767Z,101999.19
2019-06-08T21:09:58.128Z,102003.17
2019-06-08T21:11:59.768Z,102002.69
2019-06-08T21:14:01.160Z,102008.23
2019-06-08T21:16:02.850Z,102007.34
2019-06-08T21:18:04.253Z,102012.66
2019-06-08T21:20:08.398Z,102008.10
2019-06-08T21:22:09.601Z,102011.91
2019-06-08T21:24:11.127Z,102008.47
2019-06-08T21:26:12.536Z,102007.83
2019-06-08T21:28:14.021Z,102016.91
2019-06-08T21:30:23.941Z,102009.52
2019-06-08T21:32:21.547Z,102017.55
2019-06-08T21:34:22.013Z,102011.30
2019-06-08T21:36:23.446Z,102012.97
2019-06-08T21:38:24.838Z,102015.41
2019-06-08T21:40:28.145Z,102017.73
2019-06-08T21:42:29.648Z,102017.92
2019-06-08T21:44:31.045Z,102017.38
2019-06-08T21:46:32.467Z,102020.98
2019-06-08T21:48:33.880Z,102022.27
2019-06-08T21:50:37.119Z,102025.88
2019-06-08T21:52:38.709Z,102025.78
2019-06-08T21:54:40.104Z,102022.00
2019-06-08T21:56:41.522Z,102023.72
2019-06-08T21:58:42.897Z,102019.27
2019-06-08T22:00:47.150Z,102022.09
2019-06-08T22:02:49.730Z,102021.02
2019-06-08T22:04:54.656Z,102019.63
2019-06-08T22:06:54.433Z,102021.50
2019-06-08T22:08:58.866Z,102016.30
2019-06-08T22:11:00.637Z,102022.64
2019-06-08T22:13:03.047Z,102016.84
2019-06-08T22:15:07.484Z,102025.67
2019-06-08T22:17:09.172Z,102023.31
2019-06-08T22:19:10.783Z,102025.34
2019-06-08T22:21:12.193Z,102026.69
2019-06-08T22:23:13.547Z,102022.10
2019-06-08T22:25:17.347Z,102024.48
2019-06-08T22:27:18.433Z,102025.72
2019-06-08T22:29:19.842Z,102026.23
2019-06-08T22:31:23.118Z,102023.70
2019-06-08T22:33:24.489Z,102027.39
2019-06-08T22:35:27.571Z,102028.50
2019-06-08T22:37:29.033Z,102028.28
2019-06-08T22:39:30.445Z,102027.04
2019-06-08T22:41:31.815Z,102024.56
2019-06-08T22:43:33.220Z,102025.05
2019-06-08T22:45:34.622Z,102023.46
2019-06-08T22:47:38.470Z,102024.42
2019-06-08T22:49:39.327Z,102025.09
2019-06-08T22:51:40.701Z,102031.41
2019-06-08T22:53:42.067Z,102035.17
2019-06-08T22:55:43.478Z,102039.95
2019-06-08T22:57:44.827Z,102039.17
2019-06-08T22:59:47.705Z,102034.78
2019-06-08T23:01:49.319Z,102036.96
2019-06-08T23:03:50.689Z,102043.89
2019-06-08T23:05:52.068Z,102049.76
2019-06-08T23:07:54.788Z,102051.61
2019-06-08T23:09:59.931Z,102045.34
2019-06-08T23:12:05.205Z,102047.14
2019-06-08T23:14:13.006Z,102048.95
2019-06-08T23:16:10.056Z,102049.87
2019-06-08T23:18:11.533Z,102050.98
2019-06-08T23:20:13.144Z,102050.38